createdAt,value
2019-01-30T00:01:07.523Z,100.00
2019-01-30T00:03:38.648Z,100.00
2019-01-30T00:06:08.112Z,100.00
2019-01-30T00:08:37.759Z,100.00
2019-01-30T00:11:07.222Z,100.00
2019-01-30T00:13:37.050Z,100.00
2019-01-30T00:16:06.685Z,100.00
2019-01-30T00:18:36.163Z,100.00
2019-01-30T00:21:05.697Z,100.00
2019-01-30T00:23:35.184Z,100.00
2019-01-30T00:26:04.927Z,100.00
2019-01-30T00:28:34.454Z,100.00
2019-01-30T00:31:04.513Z,100.00
2019-01-30T00:33:33.994Z,100.00
2019-01-30T00:36:03.465Z,100.00
2019-01-30T00:38:32.955Z,100.00
2019-01-30T00:41:02.875Z,100.00
2019-01-30T00:43:32.430Z,100.00
2019-01-30T00:46:01.910Z,100.00
2019-01-30T00:48:31.889Z,100.00
2019-01-30T00:51:01.674Z,100.00
2019-01-30T00:53:31.227Z,100.00
2019-01-30T00:56:00.732Z,100.00
2019-01-30T00:58:30.212Z,100.00
2019-01-30T01:00:59.773Z,100.00
2019-01-30T01:03:29.431Z,100.00
2019-01-30T01:05:59.036Z,100.00
2019-01-30T01:08:30.012Z,100.00
2019-01-30T01:10:59.559Z,100.00
2019-01-30T01:13:29.075Z,100.00
2019-01-30T01:15:58.545Z,100.00
2019-01-30T01:18:28.296Z,100.00
2019-01-30T01:20:57.780Z,100.00
2019-01-30T01:23:27.260Z,100.00
2019-01-30T01:25:56.994Z,100.00
2019-01-30T01:28:26.466Z,100.00
2019-01-30T01:30:55.933Z,100.00
2019-01-30T01:33:27.368Z,100.00
2019-01-30T01:35:57.177Z,100.00
2019-01-30T01:38:26.645Z,100.00
2019-01-30T01:40:56.117Z,100.00
2019-01-30T01:43:25.588Z,100.00
2019-01-30T01:45:55.064Z,100.00
2019-01-30T01:48:24.524Z,100.00
2019-01-30T01:50:54.008Z,100.00
2019-01-30T01:53:23.483Z,100.00
2019-01-30T01:55:52.956Z,100.00
2019-01-30T01:58:22.434Z,100.00
2019-01-30T02:00:51.918Z,100.00
2019-01-30T02:03:21.379Z,100.00
2019-01-30T02:05:51.225Z,100.00
2019-01-30T02:08:20.699Z,100.00
2019-01-30T02:10:50.186Z,100.00
2019-01-30T02:13:21.591Z,100.00
2019-01-30T02:15:51.148Z,100.00
2019-01-30T02:18:22.258Z,100.00
2019-01-30T02:20:51.752Z,100.00
2019-01-30T02:23:21.220Z,100.00
2019-01-30T02:25:50.725Z,100.00
2019-01-30T02:28:20.208Z,100.00
2019-01-30T02:30:51.320Z,100.00
2019-01-30T02:33:20.799Z,100.00
2019-01-30T02:35:50.285Z,100.00
2019-01-30T02:38:19.947Z,100.00
2019-01-30T02:40:49.417Z,100.00
2019-01-30T02:43:19.336Z,100.00
2019-01-30T02:45:48.819Z,100.00
2019-01-30T02:48:18.456Z,100.00
2019-01-30T02:50:47.941Z,100.00
2019-01-30T02:53:17.407Z,100.00
2019-01-30T02:55:46.891Z,100.00
2019-01-30T02:58:16.349Z,100.00
2019-01-30T03:00:46.380Z,100.00
2019-01-30T03:03:15.846Z,100.00
2019-01-30T03:05:45.321Z,100.00
2019-01-30T03:08:15.100Z,100.00
2019-01-30T03:10:44.577Z,100.00
2019-01-30T03:13:14.160Z,100.00
2019-01-30T03:15:43.644Z,100.00
2019-01-30T03:18:13.123Z,100.00
2019-01-30T03:20:42.633Z,100.00
2019-01-30T03:23:12.101Z,100.00
2019-01-30T03:25:42.003Z,100.00
2019-01-30T03:28:11.502Z,100.00
2019-01-30T03:30:41.311Z,100.00
2019-01-30T03:33:10.736Z,100.00
2019-01-30T03:35:40.222Z,100.00
2019-01-30T03:38:10.145Z,100.00
2019-01-30T03:40:40.010Z,100.00
2019-01-30T03:43:09.474Z,100.00
2019-01-30T03:45:39.219Z,100.00
2019-01-30T03:48:08.704Z,100.00
2019-01-30T03:50:38.170Z,100.00
2019-01-30T03:53:07.652Z,100.00
2019-01-30T03:55:37.199Z,100.00
2019-01-30T03:58:07.241Z,100.00
2019-01-30T04:00:36.731Z,100.00
2019-01-30T04:03:06.200Z,100.00
2019-01-30T04:05:35.689Z,100.00
2019-01-30T04:08:05.246Z,100.00
2019-01-30T04:10:34.725Z,100.00
2019-01-30T04:13:04.297Z,100.00
2019-01-30T04:15:33.774Z,100.00
2019-01-30T04:18:03.249Z,100.00
2019-01-30T04:20:32.726Z,100.00
2019-01-30T04:23:02.243Z,100.00
2019-01-30T04:25:31.724Z,100.00
2019-01-30T04:28:01.196Z,100.00
2019-01-30T04:30:30.715Z,100.00
2019-01-30T04:33:00.189Z,100.00
2019-01-30T04:35:29.724Z,100.00
2019-01-30T04:37:59.259Z,100.00
2019-01-30T04:40:28.740Z,100.00
2019-01-30T04:42:59.190Z,100.00
2019-01-30T04:45:28.680Z,100.00
2019-01-30T04:47:58.146Z,100.00
2019-01-30T04:50:27.640Z,100.00
2019-01-30T04:52:57.171Z,100.00
2019-01-30T04:55:26.661Z,100.00
2019-01-30T04:57:58.185Z,100.00
2019-01-30T05:00:27.662Z,99.50
2019-01-30T05:02:57.304Z,98.87
2019-01-30T05:05:26.795Z,98.48
2019-01-30T05:07:56.270Z,98.71
2019-01-30T05:10:26.081Z,98.59
2019-01-30T05:12:55.554Z,98.47
2019-01-30T05:15:25.410Z,98.51
2019-01-30T05:17:55.166Z,97.96
2019-01-30T05:20:24.719Z,97.65
2019-01-30T05:22:54.189Z,98.00
2019-01-30T05:25:23.716Z,98.22
2019-01-30T05:27:53.249Z,98.86
2019-01-30T05:30:28.296Z,99.08
2019-01-30T05:32:58.078Z,99.09
2019-01-30T05:35:27.541Z,98.58
2019-01-30T05:37:57.030Z,98.48
2019-01-30T05:40:27.265Z,98.12
2019-01-30T05:42:56.777Z,97.67
2019-01-30T05:45:26.575Z,97.70
2019-01-30T05:47:56.083Z,97.30
2019-01-30T05:50:25.507Z,96.64
2019-01-30T05:52:56.599Z,96.34
2019-01-30T05:55:26.230Z,97.46
2019-01-30T05:57:55.712Z,95.75
2019-01-30T06:00:32.094Z,93.83
2019-01-30T06:03:03.511Z,93.88
2019-01-30T06:05:32.980Z,95.03
2019-01-30T06:08:04.073Z,92.63
2019-01-30T06:10:33.535Z,92.46
2019-01-30T06:13:03.032Z,91.89
2019-01-30T06:15:32.822Z,91.28
2019-01-30T06:18:02.374Z,91.08
2019-01-30T06:20:32.228Z,91.72
2019-01-30T06:23:02.003Z,92.36
2019-01-30T06:25:31.641Z,91.87
2019-01-30T06:28:01.106Z,91.13
2019-01-30T06:30:30.813Z,90.64
2019-01-30T06:33:00.302Z,90.80
2019-01-30T06:35:29.774Z,89.91
2019-01-30T06:37:59.251Z,90.89
2019-01-30T06:40:31.303Z,89.68
2019-01-30T06:43:02.711Z,89.98
2019-01-30T06:45:32.140Z,90.74
2019-01-30T06:48:01.692Z,89.96
2019-01-30T06:50:31.135Z,89.84
2019-01-30T06:53:00.914Z,90.26
2019-01-30T06:55:30.367Z,90.34
2019-01-30T06:57:59.856Z,91.07
2019-01-30T07:00:29.335Z,90.36
2019-01-30T07:02:58.956Z,89.08
2019-01-30T07:05:28.862Z,89.30
2019-01-30T07:07:58.348Z,89.61
2019-01-30T07:10:28.063Z,89.35
2019-01-30T07:12:57.537Z,87.59
2019-01-30T07:15:26.995Z,87.86
2019-01-30T07:17:56.474Z,86.98
2019-01-30T07:20:25.922Z,86.26
2019-01-30T07:22:55.706Z,85.21
2019-01-30T07:25:25.196Z,82.45
2019-01-30T07:27:54.753Z,81.34
2019-01-30T07:30:30.299Z,80.77
2019-01-30T07:33:00.093Z,81.87
2019-01-30T07:35:29.818Z,82.02
2019-01-30T07:37:59.481Z,82.41
2019-01-30T07:40:29.419Z,81.84
2019-01-30T07:42:58.863Z,81.03
2019-01-30T07:45:28.711Z,80.73
2019-01-30T07:47:58.172Z,81.38
2019-01-30T07:50:27.972Z,79.97
2019-01-30T07:52:58.931Z,80.50
2019-01-30T07:55:28.995Z,79.61
2019-01-30T07:57:58.528Z,79.51
2019-01-30T08:00:32.357Z,78.72
2019-01-30T08:03:02.437Z,77.53
2019-01-30T08:05:31.893Z,77.07
2019-01-30T08:08:01.632Z,75.31
2019-01-30T08:10:31.099Z,73.70
2019-01-30T08:13:00.952Z,73.74
2019-01-30T08:15:30.471Z,73.20
2019-01-30T08:17:59.931Z,73.69
2019-01-30T08:20:29.693Z,72.31
2019-01-30T08:22:59.586Z,70.93
2019-01-30T08:25:29.537Z,69.27
2019-01-30T08:27:59.263Z,66.38
2019-01-30T08:30:30.077Z,65.32
2019-01-30T08:33:04.788Z,64.17
2019-01-30T08:35:31.751Z,64.04
2019-01-30T08:38:01.563Z,64.49
2019-01-30T08:40:31.079Z,65.83
2019-01-30T08:43:00.562Z,65.12
2019-01-30T08:45:30.632Z,63.14
2019-01-30T08:48:00.524Z,63.45
2019-01-30T08:50:30.052Z,63.12
2019-01-30T08:52:59.518Z,60.20
2019-01-30T08:55:29.345Z,60.33
2019-01-30T08:57:58.985Z,61.35
2019-01-30T09:00:29.682Z,58.74
2019-01-30T09:02:59.153Z,58.42
2019-01-30T09:05:28.668Z,56.04
2019-01-30T09:07:58.478Z,53.17
2019-01-30T09:10:29.303Z,54.97
2019-01-30T09:12:58.755Z,55.14
2019-01-30T09:15:29.732Z,55.42
2019-01-30T09:17:59.200Z,55.37
2019-01-30T09:20:28.718Z,56.25
2019-01-30T09:22:58.180Z,56.01
2019-01-30T09:25:31.581Z,57.07
2019-01-30T09:28:02.004Z,58.05
2019-01-30T09:30:33.999Z,59.65
2019-01-30T09:33:03.736Z,59.33
2019-01-30T09:35:33.245Z,57.68
2019-01-30T09:38:02.719Z,57.21
2019-01-30T09:40:32.470Z,57.64
2019-01-30T09:43:01.945Z,57.74
2019-01-30T09:45:31.390Z,57.11
2019-01-30T09:48:00.853Z,57.77
2019-01-30T09:50:30.335Z,59.67
2019-01-30T09:52:59.937Z,60.37
2019-01-30T09:55:29.568Z,59.96
2019-01-30T09:57:59.420Z,60.69
2019-01-30T10:00:37.938Z,59.38
2019-01-30T10:03:07.414Z,60.17
2019-01-30T10:05:36.853Z,61.00
2019-01-30T10:08:07.021Z,60.13
2019-01-30T10:10:38.614Z,59.12
2019-01-30T10:13:09.055Z,59.72
2019-01-30T10:15:43.872Z,60.00
2019-01-30T10:18:14.542Z,58.70
2019-01-30T10:20:46.120Z,58.34
2019-01-30T10:23:16.047Z,56.99
2019-01-30T10:25:45.490Z,55.80
2019-01-30T10:28:16.746Z,56.94
2019-01-30T10:30:47.520Z,56.49
2019-01-30T10:33:17.284Z,55.04
2019-01-30T10:35:46.807Z,55.00
2019-01-30T10:38:17.517Z,55.91
2019-01-30T10:40:47.050Z,55.32
2019-01-30T10:43:16.670Z,54.25
2019-01-30T10:45:46.135Z,52.60
2019-01-30T10:48:15.594Z,52.38
2019-01-30T10:50:45.330Z,52.95
2019-01-30T10:53:14.838Z,55.38
2019-01-30T10:55:44.375Z,54.94
2019-01-30T10:58:15.388Z,53.89
2019-01-30T11:00:47.474Z,53.59
2019-01-30T11:03:17.296Z,53.24
2019-01-30T11:05:47.103Z,55.34
2019-01-30T11:08:16.621Z,55.67
2019-01-30T11:10:46.074Z,54.71
2019-01-30T11:13:16.092Z,52.72
2019-01-30T11:15:45.649Z,51.99
2019-01-30T11:18:15.373Z,52.58
2019-01-30T11:20:45.450Z,53.58
2019-01-30T11:23:15.278Z,54.85
2019-01-30T11:25:47.305Z,55.58
2019-01-30T11:28:17.544Z,56.77
2019-01-30T11:30:47.250Z,56.59
2019-01-30T11:33:17.181Z,58.20
2019-01-30T11:35:46.739Z,57.63
2019-01-30T11:38:16.224Z,57.05
2019-01-30T11:40:46.000Z,56.46
2019-01-30T11:43:15.438Z,56.88
2019-01-30T11:45:45.720Z,56.10
2019-01-30T11:48:16.445Z,53.73
2019-01-30T11:50:45.901Z,52.92
2019-01-30T11:53:15.356Z,53.48
2019-01-30T11:55:44.833Z,54.31
2019-01-30T11:58:14.303Z,54.82
2019-01-30T12:00:48.045Z,53.32
2019-01-30T12:03:20.809Z,52.96
2019-01-30T12:05:50.290Z,51.87
2019-01-30T12:08:20.805Z,52.09
2019-01-30T12:10:50.274Z,53.12
2019-01-30T12:13:19.713Z,54.28
2019-01-30T12:15:49.541Z,53.84
2019-01-30T12:18:19.253Z,53.68
2019-01-30T12:20:48.695Z,52.96
2019-01-30T12:23:18.167Z,51.40
2019-01-30T12:25:48.361Z,50.29
2019-01-30T12:28:18.179Z,50.02
2019-01-30T12:30:47.701Z,51.58
2019-01-30T12:33:18.230Z,52.05
2019-01-30T12:35:47.695Z,52.13
2019-01-30T12:38:17.526Z,51.28
2019-01-30T12:40:46.957Z,52.52
2019-01-30T12:43:16.967Z,52.93
2019-01-30T12:45:46.882Z,53.17
2019-01-30T12:48:16.325Z,52.61
2019-01-30T12:50:45.787Z,53.23
2019-01-30T12:53:16.207Z,54.23
2019-01-30T12:55:45.667Z,54.00
2019-01-30T12:58:15.111Z,52.97
2019-01-30T13:00:44.768Z,53.62
2019-01-30T13:03:14.623Z,52.89
2019-01-30T13:05:44.081Z,52.95
2019-01-30T13:08:13.544Z,51.65
2019-01-30T13:10:43.058Z,53.08
2019-01-30T13:13:12.514Z,52.56
2019-01-30T13:15:41.975Z,52.34
2019-01-30T13:18:18.088Z,52.51
2019-01-30T13:20:42.904Z,52.02
2019-01-30T13:23:12.413Z,53.09
2019-01-30T13:25:41.882Z,54.28
2019-01-30T13:28:11.629Z,54.37
2019-01-30T13:30:43.631Z,54.90
2019-01-30T13:33:13.294Z,54.38
2019-01-30T13:35:43.120Z,54.44
2019-01-30T13:38:12.562Z,54.58
2019-01-30T13:40:42.361Z,54.50
2019-01-30T13:43:11.798Z,53.88
2019-01-30T13:45:41.644Z,54.05
2019-01-30T13:48:11.662Z,54.56
2019-01-30T13:50:41.089Z,53.56
2019-01-30T13:53:10.875Z,53.90
2019-01-30T13:55:40.365Z,54.35
2019-01-30T13:58:09.794Z,55.67
2019-01-30T14:00:39.552Z,57.41
2019-01-30T14:03:14.210Z,57.77
2019-01-30T14:05:45.425Z,59.57
2019-01-30T14:08:16.551Z,60.69
2019-01-30T14:10:45.994Z,61.36
2019-01-30T14:13:15.489Z,61.51
2019-01-30T14:15:44.978Z,62.11
2019-01-30T14:18:14.417Z,62.65
2019-01-30T14:20:43.985Z,62.65
2019-01-30T14:23:13.497Z,63.08
2019-01-30T14:25:42.938Z,63.76
2019-01-30T14:28:12.390Z,63.48
2019-01-30T14:30:42.531Z,63.47
2019-01-30T14:33:11.948Z,63.70
2019-01-30T14:35:41.683Z,63.01
2019-01-30T14:38:12.271Z,63.60
2019-01-30T14:40:42.048Z,63.33
2019-01-30T14:43:11.535Z,64.23
2019-01-30T14:45:41.034Z,64.17
2019-01-30T14:48:10.637Z,64.66
2019-01-30T14:50:40.274Z,65.08
2019-01-30T14:53:09.744Z,65.27
2019-01-30T14:55:39.225Z,65.78
2019-01-30T14:58:09.089Z,65.89
2019-01-30T15:00:38.592Z,65.85
2019-01-30T15:03:08.099Z,65.33
2019-01-30T15:05:37.527Z,66.42
2019-01-30T15:08:07.440Z,66.62
2019-01-30T15:10:36.881Z,67.11
2019-01-30T15:13:07.349Z,67.44
2019-01-30T15:15:36.817Z,67.61
2019-01-30T15:18:08.286Z,67.61
2019-01-30T15:20:38.181Z,68.08
2019-01-30T15:23:08.174Z,68.41
2019-01-30T15:25:37.642Z,68.78
2019-01-30T15:28:07.256Z,69.39
2019-01-30T15:30:42.396Z,70.06
2019-01-30T15:33:12.374Z,69.93
2019-01-30T15:35:41.836Z,70.33
2019-01-30T15:38:11.766Z,71.08
2019-01-30T15:40:41.390Z,71.17
2019-01-30T15:43:10.856Z,71.33
2019-01-30T15:45:40.319Z,71.59
2019-01-30T15:48:09.775Z,72.01
2019-01-30T15:50:41.081Z,72.14
2019-01-30T15:53:12.981Z,72.23
2019-01-30T15:55:42.787Z,72.81
2019-01-30T15:58:12.985Z,73.23
2019-01-30T16:00:52.540Z,73.24
2019-01-30T16:03:23.654Z,73.67
2019-01-30T16:05:53.378Z,73.90
2019-01-30T16:08:22.831Z,74.10
2019-01-30T16:10:52.292Z,74.55
2019-01-30T16:13:21.752Z,74.98
2019-01-30T16:15:56.865Z,75.16
2019-01-30T16:18:26.316Z,75.47
2019-01-30T16:20:55.775Z,75.51
2019-01-30T16:23:25.557Z,75.76
2019-01-30T16:25:55.381Z,75.90
2019-01-30T16:28:25.121Z,76.00
2019-01-30T16:30:55.665Z,76.24
2019-01-30T16:33:25.115Z,76.62
2019-01-30T16:35:56.032Z,76.77
2019-01-30T16:38:25.744Z,77.07
2019-01-30T16:40:55.208Z,77.29
2019-01-30T16:43:24.663Z,77.52
2019-01-30T16:45:54.135Z,77.38
2019-01-30T16:48:23.624Z,77.83
2019-01-30T16:50:53.438Z,77.75
2019-01-30T16:53:23.561Z,77.81
2019-01-30T16:55:53.044Z,78.07
2019-01-30T16:58:22.899Z,78.34
2019-01-30T17:00:52.837Z,78.31
2019-01-30T17:03:22.292Z,78.42
2019-01-30T17:05:51.753Z,78.76
2019-01-30T17:08:21.535Z,78.94
2019-01-30T17:10:50.991Z,78.95
2019-01-30T17:13:20.461Z,78.70
2019-01-30T17:15:49.923Z,78.64
2019-01-30T17:18:24.182Z,78.94
2019-01-30T17:20:52.540Z,79.27
2019-01-30T17:23:22.011Z,79.25
2019-01-30T17:25:51.495Z,79.36
2019-01-30T17:28:20.969Z,79.63
2019-01-30T17:30:55.396Z,79.67
2019-01-30T17:33:25.187Z,79.51
2019-01-30T17:35:55.005Z,79.55
2019-01-30T17:38:25.349Z,79.53
2019-01-30T17:40:55.268Z,79.53
2019-01-30T17:43:25.189Z,79.61
2019-01-30T17:45:54.618Z,79.84
2019-01-30T17:48:24.373Z,79.65
2019-01-30T17:50:54.902Z,79.50
2019-01-30T17:53:24.362Z,79.73
2019-01-30T17:55:53.830Z,79.21
2019-01-30T17:58:23.602Z,79.45
2019-01-30T18:00:54.710Z,79.35
2019-01-30T18:03:24.190Z,79.37
2019-01-30T18:05:53.647Z,79.36
2019-01-30T18:08:23.205Z,79.47
2019-01-30T18:10:53.147Z,80.06
2019-01-30T18:13:24.783Z,79.01
2019-01-30T18:15:54.385Z,78.83
2019-01-30T18:18:24.007Z,79.46
2019-01-30T18:20:53.471Z,79.05
2019-01-30T18:23:23.279Z,82.60
2019-01-30T18:25:52.838Z,78.54
2019-01-30T18:28:22.489Z,78.24
2019-01-30T18:30:52.022Z,80.30
2019-01-30T18:33:21.841Z,78.59
2019-01-30T18:35:51.298Z,78.25
2019-01-30T18:38:20.845Z,78.14
2019-01-30T18:40:50.640Z,78.36
2019-01-30T18:43:20.218Z,78.80
2019-01-30T18:45:49.740Z,78.79
2019-01-30T18:48:19.219Z,78.74
2019-01-30T18:50:48.711Z,78.85
2019-01-30T18:53:18.385Z,78.88
2019-01-30T18:55:47.983Z,78.87
2019-01-30T18:58:18.167Z,79.10
2019-01-30T19:00:48.349Z,78.95
2019-01-30T19:03:18.163Z,79.22
2019-01-30T19:05:47.652Z,79.60
2019-01-30T19:08:17.167Z,79.77
2019-01-30T19:10:47.063Z,79.58
2019-01-30T19:13:16.888Z,79.61
2019-01-30T19:15:47.114Z,79.88
2019-01-30T19:18:16.591Z,79.55
2019-01-30T19:20:47.024Z,79.98
2019-01-30T19:23:16.844Z,79.32
2019-01-30T19:25:46.295Z,78.87
2019-01-30T19:28:16.456Z,79.09
2019-01-30T19:30:46.042Z,78.92
2019-01-30T19:33:15.658Z,79.38
2019-01-30T19:35:46.434Z,78.82
2019-01-30T19:38:16.024Z,79.13
2019-01-30T19:40:45.857Z,78.75
2019-01-30T19:43:15.608Z,78.71
2019-01-30T19:45:45.682Z,78.84
2019-01-30T19:48:15.442Z,78.92
2019-01-30T19:50:44.903Z,78.81
2019-01-30T19:53:14.434Z,78.87
2019-01-30T19:55:44.018Z,78.84
2019-01-30T19:58:13.528Z,79.14
2019-01-30T20:00:45.228Z,79.35
2019-01-30T20:03:17.517Z,79.39
2019-01-30T20:05:46.965Z,79.23
2019-01-30T20:08:16.429Z,79.28
2019-01-30T20:10:45.912Z,78.61
2019-01-30T20:13:15.392Z,78.68
2019-01-30T20:15:44.923Z,78.44
2019-01-30T20:18:14.557Z,78.94
2019-01-30T20:20:44.073Z,78.69
2019-01-30T20:23:13.811Z,78.38
2019-01-30T20:25:44.101Z,78.24
2019-01-30T20:28:13.903Z,78.08
2019-01-30T20:30:43.389Z,78.15
2019-01-30T20:33:15.572Z,77.68
2019-01-30T20:35:45.047Z,77.45
2019-01-30T20:38:14.514Z,77.60
2019-01-30T20:40:43.984Z,77.39
2019-01-30T20:43:13.439Z,77.68
2019-01-30T20:45:42.894Z,78.08
2019-01-30T20:48:12.418Z,78.53
2019-01-30T20:50:41.837Z,78.72
2019-01-30T20:53:11.566Z,79.45
2019-01-30T20:55:41.091Z,79.84
2019-01-30T20:58:10.834Z,79.70
2019-01-30T21:00:40.381Z,79.77
2019-01-30T21:03:09.849Z,79.97
2019-01-30T21:05:39.386Z,80.08
2019-01-30T21:08:09.267Z,80.24
2019-01-30T21:10:39.975Z,80.14
2019-01-30T21:13:09.922Z,80.02
2019-01-30T21:15:39.455Z,80.48
2019-01-30T21:18:09.428Z,80.49
2019-01-30T21:20:38.946Z,80.68
2019-01-30T21:23:08.753Z,80.83
2019-01-30T21:25:38.205Z,80.67
2019-01-30T21:28:07.925Z,80.57
2019-01-30T21:30:38.717Z,80.22
2019-01-30T21:33:08.223Z,80.64
2019-01-30T21:35:38.052Z,80.35
2019-01-30T21:38:07.662Z,80.65
2019-01-30T21:40:37.135Z,80.99
2019-01-30T21:43:06.876Z,81.37
2019-01-30T21:45:36.756Z,81.30
2019-01-30T21:48:06.407Z,81.31
2019-01-30T21:50:35.877Z,80.62
2019-01-30T21:53:05.513Z,80.62
2019-01-30T21:55:35.041Z,80.34
2019-01-30T21:58:04.843Z,80.33
2019-01-30T22:00:34.977Z,80.35
2019-01-30T22:03:04.666Z,79.99
2019-01-30T22:05:34.131Z,80.19
2019-01-30T22:08:04.037Z,80.25
2019-01-30T22:10:33.849Z,80.03
2019-01-30T22:13:03.307Z,80.04
2019-01-30T22:15:33.608Z,79.70
2019-01-30T22:18:03.054Z,80.13
2019-01-30T22:20:32.801Z,80.21
2019-01-30T22:23:02.250Z,80.47
2019-01-30T22:25:31.713Z,80.19
2019-01-30T22:28:01.525Z,80.06
2019-01-30T22:30:34.580Z,80.02
2019-01-30T22:33:04.565Z,79.76
2019-01-30T22:35:35.316Z,79.66
2019-01-30T22:38:12.332Z,79.91
2019-01-30T22:40:36.623Z,79.88
2019-01-30T22:43:06.082Z,79.71
2019-01-30T22:45:35.571Z,79.88
2019-01-30T22:48:05.686Z,79.68
2019-01-30T22:50:35.172Z,79.41
2019-01-30T22:53:04.629Z,79.24
2019-01-30T22:55:34.182Z,79.36
2019-01-30T22:58:04.282Z,79.62
2019-01-30T23:00:59.509Z,79.35
2019-01-30T23:03:44.351Z,79.39
2019-01-30T23:06:22.856Z,79.33
2019-01-30T23:09:01.178Z,78.91
2019-01-30T23:11:36.312Z,79.28
2019-01-30T23:14:06.139Z,79.21
2019-01-30T23:17:01.592Z,79.00
2019-01-30T23:19:34.218Z,78.83
2019-01-30T23:22:12.541Z,78.86
2019-01-30T23:25:01.708Z,79.10
2019-01-30T23:27:34.407Z,79.40
2019-01-30T23:30:22.166Z,79.19
2019-01-30T23:33:16.139Z,79.44
2019-01-30T23:35:57.433Z,78.84
2019-01-30T23:38:35.846Z,79.02
2019-01-30T23:41:25.016Z,79.36
2019-01-30T23:44:00.840Z,79.52
2019-01-30T23:46:39.308Z,79.26
2019-01-30T23:49:23.651Z,79.46
2019-01-30T23:51:59.240Z,79.78
2019-01-30T23:54:44.501Z,79.55
2019-01-30T23:57:51.608Z,79.27
